AIRPORT ID: GWS

DATE: 2021-12-01 ZULU TIME: 15.15 LOCAL TIME: 8.15


METAR KGWS 011515Z AUTO 13005KT 10SM M04/M08 A3044

ALTIMETER: A3044 Q1031

DENSITY ALT: 4600 Ft

WIND DIRECT: 150

WIND SPEED: 5 Gust

WIND CONDITIONS:

VISIBILTY: 10SM 9999M

TEMPERATURE: 25 F -4 C

DEW POINT: 18 F -8 C

HUMID: 75%

LCL: 1,000-3,000 feet

RADIO CHECK: 0

ADVISARIES: 0

GREETINGS: 1

CONVERSATIONS: 3